Somers Point, NJ (08244)

4:05 PM EST on February 14, 2016 (GMT -0500)
GSP Exit 30 Ocean Heights | | Change Station
CLOSE
Current Station
Personal Weather Station
Location: Somers Point, NJ
Elevation: 21 ft
Nearby Weather Stations

Elev 21 ft 39.32 °N, 74.61 °W | Updated 14 seconds ago

Clear
Clear
21.6 °F
Feels Like 22 °F
N
0.4
Wind Variable Wind from NNW
Gusts 2.5 mph

Today
High -- | Low -- °F
--% Chance of Precip.
Yesterday
High -- | Low -- °F
Precip. -- in
Pressure 30.50 in
Visibility 10.0 miles
Clouds Clear
Windchill 22 °F
Dew Point -8 °F
Humidity 26%
Rainfall 0.00 in
Snow Depth Not available.
6:52 AM 5:33 PM
Waxing Crescent, 45% visible
METAR KACY 142054Z 32008KT 10SM CLR M07/M25 A3049 RMK AO2 SLP326 T10671250 56006
Pressure 30.50 in
Visibility 10.0 miles
Clouds Clear
Windchill 22 °F
Dew Point -8 °F
Humidity 26%
Rainfall 0.00 in
Snow Depth Not available.
6:52 AM 5:33 PM
Waxing Crescent, 45% visible
METAR KACY 142054Z 32008KT 10SM CLR M07/M25 A3049 RMK AO2 SLP326 T10671250 56006

10-Day Weather Forecast

Almanac

Astronomy

Feb. 14, 2016 Rise Set
Actual Time
Civil Twilight
Nautical Twilight
Astronomical Twilight
Moon
Length of Visible Light
Length of Day
Tomorrow will be .
, % of the Moon is Illuminated

Today's Extremes

State Highs State Lows

Community

WunderPhotos

Upload Photos

1,892,885 photos uploaded!

WunderBlog® & News

Nearby

Air Quality

  Air Quality AQ Index Pollutant
Not available.

Snow Depth

Station Depth Elevation

Earthquake Activity

City Distance Mag. Time & Date
Minimum magnitude displayed is 2.5.

Coastal Water Temperatures

Place Temperature

Stations

Nearby Weather Stations

Station Location Temp. Windchill Dew Point Humidity Wind Precip. Elev Updated Type
                   

Watches & Warnings

There are currently no watches in effect.